Tachibana — JD2357 — position and weather

sailwx.info

Track history (hours):
 
Tides and Currents Weather Stations Pressure Air Temp Water Temp Dewpoint Dewpoint Depression Visibility Wind Speed Wind Dir Waves Ship Positions

Tachibana

Last reported at 2017-Oct-18 22:31 UTC. Time now 2017-Oct-18 22:33 UTC.
Position N 35°25' E 139°41'.

Length 36 m; draft 3.9 m.

Type: Tug. MMSI: 431000123.

Date/timePositionNaut miles runAvg speedWind from/ knotsBaromVisibWave heightAir tempDewpointWater temp
2017-Oct-18 22:31N 35°25' E 139°41'1 1.4
2017-Oct-18 22:01N 35°25' E 139°41'0 0.5
2017-Oct-18 21:31N 35°25' E 139°42'3 5.0
2017-Oct-18 21:00N 35°27' E 139°39'0 0.0
2017-Oct-18 20:31N 35°27' E 139°39'0 0.0
2017-Oct-18 20:01N 35°27' E 139°39'0 0.0
2017-Oct-18 19:31N 35°27' E 139°39'0 0.0
2017-Oct-18 19:01N 35°27' E 139°39'0 0.0
2017-Oct-18 18:30N 35°27' E 139°39'0 0.0
2017-Oct-18 18:01N 35°27' E 139°39'0 0.0
2017-Oct-18 17:31N 35°27' E 139°39'0 0.0
2017-Oct-18 17:00N 35°27' E 139°39'0 0.0
2017-Oct-18 16:30N 35°27' E 139°39'0 0.0
2017-Oct-18 16:01N 35°27' E 139°39'0 0.0
2017-Oct-18 15:31N 35°27' E 139°39'0 0.0
2017-Oct-18 15:01N 35°27' E 139°39'0 0.0
2017-Oct-18 14:01N 35°27' E 139°39'0 0.0
2017-Oct-18 13:31N 35°27' E 139°39'0 0.0
2017-Oct-18 13:00N 35°27' E 139°39'0 0.0
2017-Oct-18 12:31N 35°27' E 139°39'0 0.0
2017-Oct-18 12:00N 35°27' E 139°39'1 1.7
2017-Oct-18 11:31N 35°27' E 139°41'2 4.4
2017-Oct-18 11:00N 35°28' E 139°43'0 0.1
2017-Oct-18 10:30N 35°28' E 139°43'1 1.7
2017-Oct-18 10:00N 35°27' E 139°42'0 0.0
2017-Oct-18 09:31N 35°28' E 139°42'1 2.7
2017-Oct-18 09:00N 35°27' E 139°41'0 0.2
2017-Oct-18 08:30N 35°27' E 139°41'1 2.4
2017-Oct-18 08:00N 35°27' E 139°39'0 0.0
2017-Oct-18 07:30N 35°27' E 139°39'0 0.0
2017-Oct-18 07:00N 35°27' E 139°39'0 0.0
2017-Oct-18 06:30N 35°27' E 139°39'0 0.0
2017-Oct-18 06:00N 35°27' E 139°39'0 0.0
2017-Oct-18 05:30N 35°27' E 139°39'0 0.0
2017-Oct-18 05:00N 35°27' E 139°39'0 0.0
2017-Oct-18 04:30N 35°27' E 139°39'2 4.2
2017-Oct-18 04:00N 35°26' E 139°42'3 6.1
2017-Oct-18 03:30N 35°24' E 139°39'1 1.9
2017-Oct-18 03:00N 35°24' E 139°38'0 0.1
2017-Oct-18 02:30N 35°24' E 139°38'0 0.2
2017-Oct-18 02:00N 35°24' E 139°38'3 5.3
2017-Oct-18 01:31N 35°23' E 139°41'0 0.3
2017-Oct-18 01:00N 35°23' E 139°41'3 6.7
2017-Oct-18 00:30N 35°26' E 139°42'2 4.5
2017-Oct-18 00:00N 35°27' E 139°39'0 0.0
2017-Oct-17 23:30N 35°27' E 139°39'0 0.0
2017-Oct-17 23:00N 35°27' E 139°39'0 0.0
2017-Oct-17 07:11N 35°27' E 139°39'0 0.0
2017-Oct-17 07:00N 35°27' E 139°39'0 0.0
2017-Oct-17 06:30N 35°27' E 139°39'0 0.0
2017-Oct-17 06:00N 35°27' E 139°39'0 0.0
2017-Oct-17 05:30N 35°27' E 139°39'4 7.8
2017-Oct-17 05:00N 35°28' E 139°44'1 1.0
2017-Oct-17 04:26N 35°28' E 139°44'0 0.1
2017-Oct-17 04:00N 35°28' E 139°44'0 0.7
2017-Oct-17 03:30N 35°28' E 139°44'0 0.0
2017-Oct-17 03:00N 35°28' E 139°44'0 0.0
2017-Oct-17 02:30N 35°28' E 139°44'0 0.0
2017-Oct-17 02:00N 35°28' E 139°44'1 1.5
2017-Oct-17 01:28N 35°28' E 139°43'0 0.0
2017-Oct-17 00:59N 35°28' E 139°43'0 0.0
2017-Oct-17 00:30N 35°28' E 139°43'1 1.5
2017-Oct-17 00:01N 35°27' E 139°43'2 3.5
2017-Oct-16 23:30N 35°26' E 139°45'1 1.6
2017-Oct-16 23:00N 35°26' E 139°44'4 7.4
2017-Oct-16 22:30N 35°27' E 139°39'0 0.0
2017-Oct-16 22:01N 35°27' E 139°39'0 0.0
2017-Oct-16 09:31N 35°27' E 139°39'0 0.0
2017-Oct-16 09:31N 35°27' E 139°39'0 0.0
2017-Oct-16 09:01N 35°27' E 139°39'0 0.0
2017-Oct-16 08:31N 35°27' E 139°39'0 0.0
2017-Oct-16 08:01N 35°27' E 139°39'0 0.0
2017-Oct-16 07:31N 35°27' E 139°39'0 0.0
2017-Oct-16 07:01N 35°27' E 139°39'0 0.0
2017-Oct-16 06:31N 35°27' E 139°39'0 0.0
2017-Oct-16 06:01N 35°27' E 139°39'0 0.0
2017-Oct-16 05:31N 35°27' E 139°39'0 0.0
2017-Oct-16 05:00N 35°27' E 139°39'0 0.0
2017-Oct-16 04:30N 35°27' E 139°39'1 2.1
2017-Oct-16 04:00N 35°27' E 139°41'3 1.2
2017-Oct-16 01:27N 35°28' E 139°44'1 2.7
2017-Oct-16 01:00N 35°27' E 139°44'1 2.1
2017-Oct-16 00:31N 35°27' E 139°43'3 5.8
2017-Oct-16 00:01N 35°27' E 139°39'0 0.0
2017-Oct-15 23:30N 35°27' E 139°39'0 0.0
2017-Oct-15 23:00N 35°27' E 139°39'1 0.0
2017-Oct-15 01:37N 35°28' E 139°40'111.3
2017-Oct-15 01:30N 35°28' E 139°41'5 9.1
2017-Oct-15 01:00N 35°31' E 139°46'0 0.3
2017-Oct-15 00:30N 35°31' E 139°46'2 3.5
2017-Oct-15 00:01N 35°29' E 139°48'3 5.8
2017-Oct-14 23:30N 35°27' E 139°45'0 0.2
2017-Oct-14 23:01N 35°27' E 139°45'3 6.3
2017-Oct-14 22:29N 35°30' E 139°47'1 1.9
2017-Oct-14 22:00N 35°31' E 139°46'1 2.4
2017-Oct-14 21:30N 35°30' E 139°45'4 7.9
2017-Oct-14 21:01N 35°26' E 139°44'1 1.2
2017-Oct-14 20:30N 35°26' E 139°43'4 7.1
2017-Oct-14 20:01N 35°27' E 139°40'1 1.6
2017-Oct-14 19:30N 35°28' E 139°40'0 0.0
2017-Oct-14 19:00N 35°28' E 139°40'0 0.0
2017-Oct-14 18:30N 35°28' E 139°40'0 0.0
2017-Oct-14 18:00N 35°28' E 139°40'2 4.3
2017-Oct-14 17:30N 35°27' E 139°43'2 4.0
2017-Oct-14 17:00N 35°29' E 139°44'2 3.0
2017-Oct-14 16:30N 35°28' E 139°46'4 7.4
2017-Oct-14 16:00N 35°27' E 139°41'1 2.8
2017-Oct-14 15:30N 35°27' E 139°39'0 0.0
2017-Oct-14 15:00N 35°27' E 139°39'0 0.0
2017-Oct-14 14:30N 35°27' E 139°39'0 0.0
2017-Oct-14 14:00N 35°27' E 139°39'0 0.0
2017-Oct-14 13:30N 35°27' E 139°39'0 0.0
2017-Oct-14 13:00N 35°27' E 139°39'0 0.0
2017-Oct-14 12:30N 35°27' E 139°39'0 0.0
2017-Oct-14 12:00N 35°27' E 139°39'0 0.0
2017-Oct-14 11:30N 35°27' E 139°39'0 0.0
2017-Oct-14 11:00N 35°27' E 139°39'0 0.0
2017-Oct-14 10:30N 35°27' E 139°39'0 0.0
2017-Oct-14 10:00N 35°27' E 139°39'0 0.0
2017-Oct-14 09:30N 35°27' E 139°39'0 0.0
2017-Oct-14 09:00N 35°27' E 139°39'0 0.0
2017-Oct-14 08:30N 35°27' E 139°39'0 0.0
2017-Oct-14 08:00N 35°27' E 139°39'0 0.0
2017-Oct-14 07:30N 35°27' E 139°39'0 0.0
2017-Oct-14 07:00N 35°27' E 139°39'0 0.0
2017-Oct-14 06:30N 35°27' E 139°39'0 0.0
2017-Oct-14 06:00N 35°27' E 139°39'3 5.1
2017-Oct-14 05:30N 35°27' E 139°43'2 4.7
2017-Oct-14 05:00N 35°29' E 139°44'1 1.9
2017-Oct-14 04:30N 35°28' E 139°45'0 0.0
2017-Oct-14 04:00N 35°28' E 139°45'1 1.7
2017-Oct-14 03:30N 35°28' E 139°45'611.1
2017-Oct-14 03:00N 35°30' E 139°51'6 8.9
2017-Oct-14 02:22N 35°29' E 139°58'0 0.4
2017-Oct-14 01:22N 35°29' E 139°58'3 8.1
2017-Oct-14 01:00N 35°28' E 139°55'4 8.6
2017-Oct-14 00:30N 35°27' E 139°50'510.4
2017-Oct-14 00:00N 35°27' E 139°43'3 6.3
2017-Oct-13 23:30N 35°27' E 139°39'0 0.0
2017-Oct-13 23:00N 35°27' E 139°39'0 0.0
2017-Oct-13 07:15N 35°27' E 139°39'0 0.0
2017-Oct-13 07:00N 35°27' E 139°39'0 0.0
2017-Oct-13 06:30N 35°27' E 139°39'0 0.0
2017-Oct-13 06:00N 35°27' E 139°39'0 0.0
2017-Oct-13 05:31N 35°27' E 139°39'0 0.0
2017-Oct-13 05:01N 35°27' E 139°39'0 0.0
2017-Oct-13 04:30N 35°27' E 139°39'0 0.0
2017-Oct-13 04:00N 35°27' E 139°39'0 0.0
2017-Oct-13 03:30N 35°27' E 139°39'0 0.0
2017-Oct-13 03:00N 35°27' E 139°39'0 0.0
2017-Oct-13 02:30N 35°27' E 139°39'0 0.0
2017-Oct-13 02:00N 35°27' E 139°39'0 0.0
2017-Oct-13 01:31N 35°27' E 139°39'0 0.0
2017-Oct-13 01:01N 35°27' E 139°39'0 0.0
2017-Oct-13 00:31N 35°27' E 139°39'1 1.3
2017-Oct-13 00:01N 35°27' E 139°40'612.5
2017-Oct-12 23:30N 35°30' E 139°47'3 5.6
2017-Oct-12 23:00N 35°30' E 139°44'2 3.7
2017-Oct-12 22:30N 35°29' E 139°42'2 3.4
2017-Oct-12 22:00N 35°28' E 139°40'1 1.8
2017-Oct-12 21:30N 35°27' E 139°39'0 0.6
2017-Oct-12 21:00N 35°27' E 139°39'3 5.2
2017-Oct-12 20:30N 35°26' E 139°42'1 1.3
2017-Oct-12 20:00N 35°26' E 139°42'3 5.2
2017-Oct-12 19:30N 35°27' E 139°39'0 0.0
2017-Oct-12 19:00N 35°27' E 139°39'0 0.0
2017-Oct-12 07:24N 35°27' E 139°39'3 8.1
2017-Oct-12 07:00N 35°27' E 139°43'4 7.5
2017-Oct-12 06:31N 35°29' E 139°47'0 0.4
2017-Oct-12 06:00N 35°29' E 139°47'0 0.0
2017-Oct-12 05:30N 35°29' E 139°47'5 9.4
2017-Oct-12 05:00N 35°27' E 139°42'2 4.3
2017-Oct-12 04:30N 35°27' E 139°39'0 0.0
2017-Oct-12 04:00N 35°27' E 139°39'0 0.0
2017-Oct-12 03:30N 35°27' E 139°39'0 0.0
2017-Oct-12 03:00N 35°27' E 139°39'0 0.4
2017-Oct-12 02:30N 35°27' E 139°39'3 6.3
2017-Oct-12 02:00N 35°27' E 139°43'0 0.7
2017-Oct-12 01:15N 35°28' E 139°43'1 4.0
2017-Oct-12 01:00N 35°27' E 139°42'2 0.0
2017-Oct-09 23:09N 35°27' E 139°39'0 0.0
2017-Oct-09 23:01N 35°27' E 139°39'1 2.7
2017-Oct-09 22:31N 35°27' E 139°41'0 0.3
2017-Oct-09 21:59N 35°27' E 139°41'3 4.5
2017-Oct-09 21:23N 35°26' E 139°44'2 5.7
2017-Oct-09 20:59N 35°27' E 139°42'0 0.0
2017-Oct-09 20:23N 35°27' E 139°42'0 0.0
2017-Oct-09 20:00N 35°27' E 139°42'0 0.0
2017-Oct-09 19:31N 35°27' E 139°42'0 0.0
2017-Oct-09 18:23N 35°27' E 139°42'2 5.1
2017-Oct-09 18:00N 35°26' E 139°41'0 0.0
2017-Oct-09 17:30N 35°26' E 139°41'1 0.2
2017-Oct-09 10:48N 35°27' E 139°40'1 3.7
2017-Oct-09 10:29N 35°26' E 139°41'1 0.4
2017-Oct-09 07:58N 35°25' E 139°41'2 1.4
2017-Oct-09 06:42N 35°27' E 139°41'1 2.9
2017-Oct-09 06:15N 35°27' E 139°39'0 0.0
2017-Oct-09 05:58N 35°27' E 139°39'  
Track history (hours):
 
Tides and Currents Weather Stations Pressure Air Temp Water Temp Dewpoint Dewpoint Depression Visibility Wind Speed Wind Dir Waves Ship Positions

Tachibana

Last reported at 2017-Oct-18 22:31 UTC. Time now 2017-Oct-18 22:33 UTC.
Position N 35°25' E 139°41'.

Length 36 m; draft 3.9 m.

Type: Tug. MMSI: 431000123.

Date/timePositionNaut miles runAvg speedWind from/ knotsBaromVisibWave heightAir tempDewpointWater temp
2017-Oct-18 22:31N 35°25' E 139°41'1 1.4
2017-Oct-18 22:01N 35°25' E 139°41'0 0.5
2017-Oct-18 21:31N 35°25' E 139°42'3 5.0
2017-Oct-18 21:00N 35°27' E 139°39'0 0.0
2017-Oct-18 20:31N 35°27' E 139°39'0 0.0
2017-Oct-18 20:01N 35°27' E 139°39'0 0.0
2017-Oct-18 19:31N 35°27' E 139°39'0 0.0
2017-Oct-18 19:01N 35°27' E 139°39'0 0.0
2017-Oct-18 18:30N 35°27' E 139°39'0 0.0
2017-Oct-18 18:01N 35°27' E 139°39'0 0.0
2017-Oct-18 17:31N 35°27' E 139°39'0 0.0
2017-Oct-18 17:00N 35°27' E 139°39'0 0.0
2017-Oct-18 16:30N 35°27' E 139°39'0 0.0
2017-Oct-18 16:01N 35°27' E 139°39'0 0.0
2017-Oct-18 15:31N 35°27' E 139°39'0 0.0
2017-Oct-18 15:01N 35°27' E 139°39'0 0.0
2017-Oct-18 14:01N 35°27' E 139°39'0 0.0
2017-Oct-18 13:31N 35°27' E 139°39'0 0.0
2017-Oct-18 13:00N 35°27' E 139°39'0 0.0
2017-Oct-18 12:31N 35°27' E 139°39'0 0.0
2017-Oct-18 12:00N 35°27' E 139°39'1 1.7
2017-Oct-18 11:31N 35°27' E 139°41'2 4.4
2017-Oct-18 11:00N 35°28' E 139°43'0 0.1
2017-Oct-18 10:30N 35°28' E 139°43'1 1.7
2017-Oct-18 10:00N 35°27' E 139°42'0 0.0
2017-Oct-18 09:31N 35°28' E 139°42'1 2.7
2017-Oct-18 09:00N 35°27' E 139°41'0 0.2
2017-Oct-18 08:30N 35°27' E 139°41'1 2.4
2017-Oct-18 08:00N 35°27' E 139°39'0 0.0
2017-Oct-18 07:30N 35°27' E 139°39'0 0.0
2017-Oct-18 07:00N 35°27' E 139°39'0 0.0
2017-Oct-18 06:30N 35°27' E 139°39'0 0.0
2017-Oct-18 06:00N 35°27' E 139°39'0 0.0
2017-Oct-18 05:30N 35°27' E 139°39'0 0.0
2017-Oct-18 05:00N 35°27' E 139°39'0 0.0
2017-Oct-18 04:30N 35°27' E 139°39'2 4.2
2017-Oct-18 04:00N 35°26' E 139°42'3 6.1
2017-Oct-18 03:30N 35°24' E 139°39'1 1.9
2017-Oct-18 03:00N 35°24' E 139°38'0 0.1
2017-Oct-18 02:30N 35°24' E 139°38'0 0.2
2017-Oct-18 02:00N 35°24' E 139°38'3 5.3
2017-Oct-18 01:31N 35°23' E 139°41'0 0.3
2017-Oct-18 01:00N 35°23' E 139°41'3 6.7
2017-Oct-18 00:30N 35°26' E 139°42'2 4.5
2017-Oct-18 00:00N 35°27' E 139°39'0 0.0
2017-Oct-17 23:30N 35°27' E 139°39'0 0.0
2017-Oct-17 23:00N 35°27' E 139°39'0 0.0
2017-Oct-17 07:11N 35°27' E 139°39'0 0.0
2017-Oct-17 07:00N 35°27' E 139°39'0 0.0
2017-Oct-17 06:30N 35°27' E 139°39'0 0.0
2017-Oct-17 06:00N 35°27' E 139°39'0 0.0
2017-Oct-17 05:30N 35°27' E 139°39'4 7.8
2017-Oct-17 05:00N 35°28' E 139°44'1 1.0
2017-Oct-17 04:26N 35°28' E 139°44'0 0.1
2017-Oct-17 04:00N 35°28' E 139°44'0 0.7
2017-Oct-17 03:30N 35°28' E 139°44'0 0.0
2017-Oct-17 03:00N 35°28' E 139°44'0 0.0
2017-Oct-17 02:30N 35°28' E 139°44'0 0.0
2017-Oct-17 02:00N 35°28' E 139°44'1 1.5
2017-Oct-17 01:28N 35°28' E 139°43'0 0.0
2017-Oct-17 00:59N 35°28' E 139°43'0 0.0
2017-Oct-17 00:30N 35°28' E 139°43'1 1.5
2017-Oct-17 00:01N 35°27' E 139°43'2 3.5
2017-Oct-16 23:30N 35°26' E 139°45'1 1.6
2017-Oct-16 23:00N 35°26' E 139°44'4 7.4
2017-Oct-16 22:30N 35°27' E 139°39'0 0.0
2017-Oct-16 22:01N 35°27' E 139°39'0 0.0
2017-Oct-16 09:31N 35°27' E 139°39'0 0.0
2017-Oct-16 09:31N 35°27' E 139°39'0 0.0
2017-Oct-16 09:01N 35°27' E 139°39'0 0.0
2017-Oct-16 08:31N 35°27' E 139°39'0 0.0
2017-Oct-16 08:01N 35°27' E 139°39'0 0.0
2017-Oct-16 07:31N 35°27' E 139°39'0 0.0
2017-Oct-16 07:01N 35°27' E 139°39'0 0.0
2017-Oct-16 06:31N 35°27' E 139°39'0 0.0
2017-Oct-16 06:01N 35°27' E 139°39'0 0.0
2017-Oct-16 05:31N 35°27' E 139°39'0 0.0
2017-Oct-16 05:00N 35°27' E 139°39'0 0.0
2017-Oct-16 04:30N 35°27' E 139°39'1 2.1
2017-Oct-16 04:00N 35°27' E 139°41'3 1.2
2017-Oct-16 01:27N 35°28' E 139°44'1 2.7
2017-Oct-16 01:00N 35°27' E 139°44'1 2.1
2017-Oct-16 00:31N 35°27' E 139°43'3 5.8
2017-Oct-16 00:01N 35°27' E 139°39'0 0.0
2017-Oct-15 23:30N 35°27' E 139°39'0 0.0
2017-Oct-15 23:00N 35°27' E 139°39'1 0.0
2017-Oct-15 01:37N 35°28' E 139°40'111.3
2017-Oct-15 01:30N 35°28' E 139°41'5 9.1
2017-Oct-15 01:00N 35°31' E 139°46'0 0.3
2017-Oct-15 00:30N 35°31' E 139°46'2 3.5
2017-Oct-15 00:01N 35°29' E 139°48'3 5.8
2017-Oct-14 23:30N 35°27' E 139°45'0 0.2
2017-Oct-14 23:01N 35°27' E 139°45'3 6.3
2017-Oct-14 22:29N 35°30' E 139°47'1 1.9
2017-Oct-14 22:00N 35°31' E 139°46'1 2.4
2017-Oct-14 21:30N 35°30' E 139°45'4 7.9
2017-Oct-14 21:01N 35°26' E 139°44'1 1.2
2017-Oct-14 20:30N 35°26' E 139°43'4 7.1
2017-Oct-14 20:01N 35°27' E 139°40'1 1.6
2017-Oct-14 19:30N 35°28' E 139°40'0 0.0
2017-Oct-14 19:00N 35°28' E 139°40'0 0.0
2017-Oct-14 18:30N 35°28' E 139°40'0 0.0
2017-Oct-14 18:00N 35°28' E 139°40'2 4.3
2017-Oct-14 17:30N 35°27' E 139°43'2 4.0
2017-Oct-14 17:00N 35°29' E 139°44'2 3.0
2017-Oct-14 16:30N 35°28' E 139°46'4 7.4
2017-Oct-14 16:00N 35°27' E 139°41'1 2.8
2017-Oct-14 15:30N 35°27' E 139°39'0 0.0
2017-Oct-14 15:00N 35°27' E 139°39'0 0.0
2017-Oct-14 14:30N 35°27' E 139°39'0 0.0
2017-Oct-14 14:00N 35°27' E 139°39'0 0.0
2017-Oct-14 13:30N 35°27' E 139°39'0 0.0
2017-Oct-14 13:00N 35°27' E 139°39'0 0.0
2017-Oct-14 12:30N 35°27' E 139°39'0 0.0
2017-Oct-14 12:00N 35°27' E 139°39'0 0.0
2017-Oct-14 11:30N 35°27' E 139°39'0 0.0
2017-Oct-14 11:00N 35°27' E 139°39'0 0.0
2017-Oct-14 10:30N 35°27' E 139°39'0 0.0
2017-Oct-14 10:00N 35°27' E 139°39'0 0.0
2017-Oct-14 09:30N 35°27' E 139°39'0 0.0
2017-Oct-14 09:00N 35°27' E 139°39'0 0.0
2017-Oct-14 08:30N 35°27' E 139°39'0 0.0
2017-Oct-14 08:00N 35°27' E 139°39'0 0.0
2017-Oct-14 07:30N 35°27' E 139°39'0 0.0
2017-Oct-14 07:00N 35°27' E 139°39'0 0.0
2017-Oct-14 06:30N 35°27' E 139°39'0 0.0
2017-Oct-14 06:00N 35°27' E 139°39'3 5.1
2017-Oct-14 05:30N 35°27' E 139°43'2 4.7
2017-Oct-14 05:00N 35°29' E 139°44'1 1.9
2017-Oct-14 04:30N 35°28' E 139°45'0 0.0
2017-Oct-14 04:00N 35°28' E 139°45'1 1.7
2017-Oct-14 03:30N 35°28' E 139°45'611.1
2017-Oct-14 03:00N 35°30' E 139°51'6 8.9
2017-Oct-14 02:22N 35°29' E 139°58'0 0.4
2017-Oct-14 01:22N 35°29' E 139°58'3 8.1
2017-Oct-14 01:00N 35°28' E 139°55'4 8.6
2017-Oct-14 00:30N 35°27' E 139°50'510.4
2017-Oct-14 00:00N 35°27' E 139°43'3 6.3
2017-Oct-13 23:30N 35°27' E 139°39'0 0.0
2017-Oct-13 23:00N 35°27' E 139°39'0 0.0
2017-Oct-13 07:15N 35°27' E 139°39'0 0.0
2017-Oct-13 07:00N 35°27' E 139°39'0 0.0
2017-Oct-13 06:30N 35°27' E 139°39'0 0.0
2017-Oct-13 06:00N 35°27' E 139°39'0 0.0
2017-Oct-13 05:31N 35°27' E 139°39'0 0.0
2017-Oct-13 05:01N 35°27' E 139°39'0 0.0
2017-Oct-13 04:30N 35°27' E 139°39'0 0.0
2017-Oct-13 04:00N 35°27' E 139°39'0 0.0
2017-Oct-13 03:30N 35°27' E 139°39'0 0.0
2017-Oct-13 03:00N 35°27' E 139°39'0 0.0
2017-Oct-13 02:30N 35°27' E 139°39'0 0.0
2017-Oct-13 02:00N 35°27' E 139°39'0 0.0
2017-Oct-13 01:31N 35°27' E 139°39'0 0.0
2017-Oct-13 01:01N 35°27' E 139°39'0 0.0
2017-Oct-13 00:31N 35°27' E 139°39'1 1.3
2017-Oct-13 00:01N 35°27' E 139°40'612.5
2017-Oct-12 23:30N 35°30' E 139°47'3 5.6
2017-Oct-12 23:00N 35°30' E 139°44'2 3.7
2017-Oct-12 22:30N 35°29' E 139°42'2 3.4
2017-Oct-12 22:00N 35°28' E 139°40'1 1.8
2017-Oct-12 21:30N 35°27' E 139°39'0 0.6
2017-Oct-12 21:00N 35°27' E 139°39'3 5.2
2017-Oct-12 20:30N 35°26' E 139°42'1 1.3
2017-Oct-12 20:00N 35°26' E 139°42'3 5.2
2017-Oct-12 19:30N 35°27' E 139°39'0 0.0
2017-Oct-12 19:00N 35°27' E 139°39'0 0.0
2017-Oct-12 07:24N 35°27' E 139°39'3 8.1
2017-Oct-12 07:00N 35°27' E 139°43'4 7.5
2017-Oct-12 06:31N 35°29' E 139°47'0 0.4
2017-Oct-12 06:00N 35°29' E 139°47'0 0.0
2017-Oct-12 05:30N 35°29' E 139°47'5 9.4
2017-Oct-12 05:00N 35°27' E 139°42'2 4.3
2017-Oct-12 04:30N 35°27' E 139°39'0 0.0
2017-Oct-12 04:00N 35°27' E 139°39'0 0.0
2017-Oct-12 03:30N 35°27' E 139°39'0 0.0
2017-Oct-12 03:00N 35°27' E 139°39'0 0.4
2017-Oct-12 02:30N 35°27' E 139°39'3 6.3
2017-Oct-12 02:00N 35°27' E 139°43'0 0.7
2017-Oct-12 01:15N 35°28' E 139°43'1 4.0
2017-Oct-12 01:00N 35°27' E 139°42'2 0.0
2017-Oct-09 23:09N 35°27' E 139°39'0 0.0
2017-Oct-09 23:01N 35°27' E 139°39'1 2.7
2017-Oct-09 22:31N 35°27' E 139°41'0 0.3
2017-Oct-09 21:59N 35°27' E 139°41'3 4.5
2017-Oct-09 21:23N 35°26' E 139°44'2 5.7
2017-Oct-09 20:59N 35°27' E 139°42'0 0.0
2017-Oct-09 20:23N 35°27' E 139°42'0 0.0
2017-Oct-09 20:00N 35°27' E 139°42'0 0.0
2017-Oct-09 19:31N 35°27' E 139°42'0 0.0
2017-Oct-09 18:23N 35°27' E 139°42'2 5.1
2017-Oct-09 18:00N 35°26' E 139°41'0 0.0
2017-Oct-09 17:30N 35°26' E 139°41'1 0.2
2017-Oct-09 10:48N 35°27' E 139°40'1 3.7
2017-Oct-09 10:29N 35°26' E 139°41'1 0.4
2017-Oct-09 07:58N 35°25' E 139°41'2 1.4
2017-Oct-09 06:42N 35°27' E 139°41'1 2.9
2017-Oct-09 06:15N 35°27' E 139°39'0 0.0
2017-Oct-09 05:58N 35°27' E 139°39'  

Dump ship's entire track history